Sierra Vista, AZ (85650)

12:50 AM MST on February 28, 2015 (GMT -0700)
Mountain Ridge Subdivision | Change Station
CLOSE
Current Station
Personal Weather Station
Location: Sierra Vista, AZ
Elevation: 4672 ft
Nearby Weather Stations

Elev 4672 ft 31.50 °N, 110.27 °W | Updated 21 seconds ago

Clear
Clear
51.0 °F
Feels Like 51.0 °F
N
3.0
Wind Variable Wind from SSW
Gusts 3.0 mph

Today
High -- | Low -- °F
--% Chance of Precip.
Yesterday
High -- | Low -- °F
Precip. -- in
6:49 AM 6:18 PM
Waxing Gibbous, 75% visible
Pressure 29.73 in
Visibility 10.0 miles
Clouds Clear
Dew Point 38 °F
Humidity 60%
Rainfall 0.00 in
Snow Depth Not available.
UV 0 out of 12
Pollen 9.10 out of 12
Air Quality Not available.
Flu Activity Not available.
METAR KFHU 280656Z AUTO 18009KT 10SM CLR 12/02 A2984 RMK AO2 SLP065 T01170017 402000044 $

More Conditions Fewer Conditions

Pressure 29.73 in
Visibility 10.0 miles
Clouds Clear
Dew Point 38 °F
Humidity 60%
Rainfall 0.00 in
Snow Depth Not available.
UV 0 out of 12
Pollen 9.10 out of 12
Air Quality Not available.
Flu Activity Not available.
METAR KFHU 280656Z AUTO 18009KT 10SM CLR 12/02 A2984 RMK AO2 SLP065 T01170017 402000044 $

More Conditions Fewer Conditions

10-Day Weather Forecast

Almanac

Astronomy

Feb. 28, 2015 Rise Set
Actual Time
Civil Twilight
Nautical Twilight
Astronomical Twilight
Moon
Length of Visible Light
Length of Day
Tomorrow will be .
, % of the Moon is Illuminated

Today's Extremes

State Highs State Lows

Community

WunderPhotos

Upload Photos

1,800,984 photos uploaded!

WunderBlogs® & News

Nearby

Air Quality

  Air Quality AQ Index Pollutant
Not available.

Snow Depth

Station Depth Elevation

Earthquake Activity

City Distance Mag. Time & Date
Minimum magnitude displayed is 2.5.

Coastal Water Temperatures

Place Temperature

Nearby Weather Stations